createdAt,value
2019-01-24T00:00:59.169Z,35.27
2019-01-24T00:03:39.800Z,36.13
2019-01-24T00:06:21.223Z,39.20
2019-01-24T00:09:03.324Z,35.53
2019-01-24T00:11:44.004Z,37.10
2019-01-24T00:14:25.402Z,41.37
2019-01-24T00:17:06.958Z,35.90
2019-01-24T00:19:48.236Z,35.83
2019-01-24T00:22:29.014Z,42.87
2019-01-24T00:25:10.601Z,41.37
2019-01-24T00:27:51.518Z,40.80
2019-01-24T00:30:32.108Z,40.70
2019-01-24T00:33:13.672Z,44.97
2019-01-24T00:35:55.179Z,42.80
2019-01-24T00:38:36.612Z,39.80
2019-01-24T00:41:17.572Z,42.93
2019-01-24T00:43:58.837Z,45.73
2019-01-24T00:46:39.924Z,42.70
2019-01-24T00:49:21.187Z,37.83
2019-01-24T00:52:02.664Z,41.93
2019-01-24T00:54:42.884Z,41.83
2019-01-24T00:57:31.441Z,41.53
2019-01-24T01:00:12.472Z,42.80
2019-01-24T01:02:53.840Z,42.87
2019-01-24T01:05:34.557Z,47.13
2019-01-24T01:08:15.211Z,42.77
2019-01-24T01:10:56.377Z,44.47
2019-01-24T01:13:37.435Z,43.37
2019-01-24T01:16:18.089Z,43.60
2019-01-24T01:18:58.844Z,44.13
2019-01-24T01:21:39.808Z,44.53
2019-01-24T01:24:21.155Z,40.67
2019-01-24T01:27:01.957Z,39.60
2019-01-24T01:29:43.448Z,45.53
2019-01-24T01:32:24.688Z,38.20
2019-01-24T01:35:05.268Z,40.03
2019-01-24T01:37:46.597Z,44.60
2019-01-24T01:40:27.251Z,43.07
2019-01-24T01:43:08.362Z,36.33
2019-01-24T01:45:48.891Z,34.43
2019-01-24T01:48:30.129Z,39.03
2019-01-24T01:51:11.417Z,43.60
2019-01-24T01:53:52.705Z,42.97
2019-01-24T01:56:33.373Z,45.23
2019-01-24T01:59:14.207Z,41.17
2019-01-24T02:01:55.699Z,39.73
2019-01-24T02:04:42.714Z,44.27
2019-01-24T02:07:19.180Z,43.07
2019-01-24T02:09:59.146Z,42.63
2019-01-24T02:15:53.606Z,39.70
2019-01-24T02:18:34.704Z,40.77
2019-01-24T02:21:16.005Z,44.30
2019-01-24T02:23:56.539Z,35.37
2019-01-24T02:26:37.878Z,40.80
2019-01-24T02:29:17.350Z,41.63
2019-01-24T02:31:56.890Z,37.23
2019-01-24T02:37:50.820Z,39.43
2019-01-24T02:40:32.327Z,42.33
2019-01-24T02:43:13.250Z,38.70
2019-01-24T02:45:54.728Z,39.53
2019-01-24T02:48:35.936Z,42.20
2019-01-24T02:51:16.562Z,37.27
2019-01-24T02:53:57.997Z,42.27
2019-01-24T02:56:39.226Z,39.30
2019-01-24T02:59:20.508Z,39.10
2019-01-24T03:02:01.150Z,40.13
2019-01-24T03:04:42.408Z,39.90
2019-01-24T03:07:23.284Z,40.37
2019-01-24T03:10:04.338Z,39.20
2019-01-24T03:12:45.810Z,39.57
2019-01-24T03:15:27.111Z,39.10
2019-01-24T03:18:07.823Z,35.70
2019-01-24T03:20:49.314Z,39.40
2019-01-24T03:23:30.706Z,40.50
2019-01-24T03:26:11.255Z,41.73
2019-01-24T03:28:51.352Z,38.67
2019-01-24T03:31:32.115Z,40.63
2019-01-24T03:34:11.566Z,37.80
2019-01-24T03:36:53.147Z,38.60
2019-01-24T03:39:32.784Z,35.57
2019-01-24T03:42:12.344Z,37.70
2019-01-24T03:48:00.701Z,37.67
2019-01-24T03:50:41.851Z,39.03
2019-01-24T03:53:23.120Z,39.20
2019-01-24T03:56:03.714Z,41.77
2019-01-24T03:58:45.052Z,39.37
2019-01-24T04:01:26.409Z,37.17
2019-01-24T04:04:07.977Z,41.07
2019-01-24T04:06:49.114Z,37.20
2019-01-24T04:09:30.736Z,35.00
2019-01-24T04:12:12.375Z,36.53
2019-01-24T04:14:53.797Z,40.23
2019-01-24T04:17:35.092Z,38.37
2019-01-24T04:20:16.482Z,38.20
2019-01-24T04:22:57.235Z,26.00
2019-01-24T04:25:38.277Z,41.00
2019-01-24T04:28:19.564Z,34.00
2019-01-24T04:31:01.054Z,37.50
2019-01-24T04:33:42.613Z,40.70
2019-01-24T04:36:23.720Z,37.90
2019-01-24T04:39:05.193Z,35.30
2019-01-24T04:41:45.912Z,33.57
2019-01-24T04:44:27.488Z,34.10
2019-01-24T04:47:08.631Z,34.77
2019-01-24T04:49:49.479Z,35.83
2019-01-24T04:52:29.498Z,36.77
2019-01-24T04:55:18.754Z,40.73
2019-01-24T04:57:59.593Z,35.17
2019-01-24T05:00:40.816Z,42.83
2019-01-24T05:03:20.374Z,35.70
2019-01-24T05:09:09.096Z,36.50
2019-01-24T05:11:50.629Z,38.43
2019-01-24T05:14:31.358Z,38.00
2019-01-24T05:17:12.242Z,39.73
2019-01-24T05:19:53.032Z,39.03
2019-01-24T05:22:34.496Z,41.03
2019-01-24T05:25:15.810Z,38.40
2019-01-24T05:27:57.302Z,39.07
2019-01-24T05:30:38.093Z,38.83
2019-01-24T05:33:19.172Z,36.93
2019-01-24T05:36:00.514Z,39.97
2019-01-24T05:38:41.643Z,40.40
2019-01-24T05:41:22.764Z,38.73
2019-01-24T05:44:04.193Z,39.90
2019-01-24T05:46:45.309Z,37.83
2019-01-24T05:49:26.242Z,38.63
2019-01-24T05:52:07.673Z,41.00
2019-01-24T05:54:48.784Z,39.60
2019-01-24T05:57:30.194Z,36.53
2019-01-24T06:00:11.095Z,39.23
2019-01-24T06:02:52.015Z,38.50
2019-01-24T06:05:33.259Z,42.10
2019-01-24T06:08:14.056Z,39.60
2019-01-24T06:10:55.437Z,37.93
2019-01-24T06:13:36.682Z,36.23
2019-01-24T06:16:17.415Z,39.67
2019-01-24T06:18:58.637Z,36.77
2019-01-24T06:21:40.238Z,30.10
2019-01-24T06:24:21.303Z,36.43
2019-01-24T06:27:02.144Z,38.13
2019-01-24T06:29:43.547Z,34.03
2019-01-24T06:32:23.822Z,42.33
2019-01-24T06:35:04.611Z,40.67
2019-01-24T06:37:46.176Z,39.23
2019-01-24T06:40:27.548Z,42.00
2019-01-24T06:43:09.079Z,41.60
2019-01-24T06:45:50.239Z,41.50
2019-01-24T06:48:31.486Z,38.33
2019-01-24T06:51:12.683Z,41.80
2019-01-24T06:53:53.935Z,44.70
2019-01-24T06:56:35.176Z,40.93
2019-01-24T06:59:15.908Z,40.33
2019-01-24T07:01:57.252Z,36.23
2019-01-24T07:04:38.769Z,43.10
2019-01-24T07:07:19.362Z,41.87
2019-01-24T07:10:00.035Z,39.60
2019-01-24T07:12:41.143Z,40.03
2019-01-24T07:15:22.324Z,39.83
2019-01-24T07:18:01.822Z,40.73
2019-01-24T07:20:50.241Z,31.90
2019-01-24T07:23:30.958Z,43.43
2019-01-24T07:26:12.406Z,40.93
2019-01-24T07:28:53.883Z,36.87
2019-01-24T07:31:35.127Z,39.83
2019-01-24T07:34:15.087Z,41.03
2019-01-24T07:37:03.591Z,37.57
2019-01-24T07:39:43.129Z,42.90
2019-01-24T07:42:31.514Z,35.13
2019-01-24T07:45:12.605Z,41.93
2019-01-24T07:47:54.275Z,36.67
2019-01-24T07:50:35.907Z,41.37
2019-01-24T07:53:16.570Z,39.30
2019-01-24T07:55:57.883Z,37.40
2019-01-24T07:58:39.134Z,40.50
2019-01-24T08:01:20.655Z,39.63
2019-01-24T08:04:02.063Z,38.13
2019-01-24T08:06:42.770Z,38.93
2019-01-24T08:09:24.013Z,39.93
2019-01-24T08:12:05.452Z,39.77
2019-01-24T08:14:46.081Z,37.67
2019-01-24T08:17:27.589Z,38.87
2019-01-24T08:20:08.609Z,42.97
2019-01-24T08:22:49.685Z,31.53
2019-01-24T08:25:29.239Z,40.57
2019-01-24T08:28:10.018Z,42.30
2019-01-24T08:30:51.361Z,39.37
2019-01-24T08:33:32.341Z,38.70
2019-01-24T08:36:15.545Z,36.33
2019-01-24T08:56:43.806Z,39.00
2019-01-24T08:59:29.448Z,36.73
2019-01-24T09:02:08.261Z,39.40
2019-01-24T09:04:49.663Z,39.83
2019-01-24T09:07:29.522Z,37.10
2019-01-24T09:13:26.615Z,34.90
2019-01-24T09:16:07.391Z,33.03
2019-01-24T09:18:48.764Z,42.43
2019-01-24T09:21:29.449Z,38.17
2019-01-24T09:24:10.611Z,39.33
2019-01-24T09:26:52.094Z,34.87
2019-01-24T09:29:32.960Z,35.70
2019-01-24T09:32:13.093Z,40.50
2019-01-24T09:34:51.488Z,35.17
2019-01-24T09:37:31.637Z,41.67
2019-01-24T09:40:10.157Z,41.43
2019-01-24T09:42:50.074Z,39.67
2019-01-24T09:45:30.394Z,39.30
2019-01-24T09:48:10.613Z,39.63
2019-01-24T09:50:49.170Z,42.17
2019-01-24T09:53:29.308Z,34.83
2019-01-24T09:56:07.967Z,43.20
2019-01-24T09:58:48.131Z,40.57
2019-01-24T10:01:26.631Z,36.47
2019-01-24T10:04:06.936Z,36.63
2019-01-24T10:06:47.146Z,34.97
2019-01-24T10:09:26.808Z,37.53
2019-01-24T10:12:06.350Z,35.50
2019-01-24T10:14:54.818Z,33.30
2019-01-24T10:17:36.170Z,31.57
2019-01-24T10:20:17.115Z,33.17
2019-01-24T11:01:40.301Z,22.70
2019-01-24T11:04:21.143Z,22.13
2019-01-24T11:06:59.675Z,20.00
2019-01-24T11:09:38.128Z,21.20
2019-01-24T11:42:02.065Z,15.87
2019-01-24T11:44:42.460Z,14.93
2019-01-24T11:47:22.685Z,11.73
2019-01-24T11:50:02.725Z,15.33
2019-01-24T11:52:42.856Z,14.77
2019-01-24T11:55:22.974Z,15.47
2019-01-24T11:58:03.213Z,13.33
2019-01-24T12:00:43.263Z,16.30
2019-01-24T12:03:21.776Z,13.37
2019-01-24T12:06:01.655Z,16.83
2019-01-24T12:08:41.860Z,15.77
2019-01-24T12:11:22.090Z,16.47
2019-01-24T12:14:02.470Z,13.83
2019-01-24T12:16:42.761Z,17.63
2019-01-24T12:19:21.177Z,13.03
2019-01-24T12:22:01.348Z,16.63
2019-01-24T12:24:43.094Z,16.00
2019-01-24T12:27:24.380Z,12.87
2019-01-24T12:30:05.880Z,12.43
2019-01-24T12:32:46.617Z,13.40
2019-01-24T12:35:27.698Z,12.80
2019-01-24T12:38:08.656Z,11.87
2019-01-24T12:40:49.892Z,11.00
2019-01-24T12:43:31.209Z,13.47
2019-01-24T12:46:12.187Z,15.27
2019-01-24T12:48:53.216Z,18.67
2019-01-24T12:51:34.713Z,17.30
2019-01-24T12:54:16.359Z,18.87
2019-01-24T12:56:57.749Z,18.10
2019-01-24T12:59:38.679Z,22.43
2019-01-24T13:02:19.317Z,22.20
2019-01-24T13:05:00.199Z,22.43
2019-01-24T13:07:40.443Z,24.10
2019-01-24T13:10:28.931Z,20.40
2019-01-24T13:13:09.743Z,20.17
2019-01-24T13:15:50.485Z,16.77
2019-01-24T13:18:31.526Z,19.70
2019-01-24T13:21:12.645Z,16.60
2019-01-24T13:23:53.976Z,20.13
2019-01-24T13:26:35.492Z,18.90
2019-01-24T13:29:16.596Z,15.83
2019-01-24T13:31:57.937Z,19.30
2019-01-24T13:34:39.150Z,17.63
2019-01-24T13:37:25.690Z,23.93
2019-01-24T13:40:03.270Z,23.83
2019-01-24T13:42:43.930Z,25.60
2019-01-24T13:45:25.061Z,22.60
2019-01-24T13:48:06.534Z,22.87
2019-01-24T13:50:48.150Z,20.07
2019-01-24T13:53:29.515Z,26.10
2019-01-24T13:56:10.538Z,22.37
2019-01-24T13:58:51.882Z,25.73
2019-01-24T14:01:33.163Z,23.17
2019-01-24T14:04:13.807Z,23.23
2019-01-24T14:06:53.340Z,32.70
2019-01-24T14:09:34.484Z,29.53
2019-01-24T14:12:15.681Z,22.70
2019-01-24T14:14:56.392Z,22.73
2019-01-24T14:17:37.539Z,25.77
2019-01-24T14:20:18.407Z,23.00
2019-01-24T14:22:59.265Z,24.87
2019-01-24T14:25:40.090Z,25.23
2019-01-24T14:28:21.010Z,20.20
2019-01-24T14:31:01.797Z,23.97
2019-01-24T14:33:42.958Z,27.17
2019-01-24T14:36:25.374Z,29.67
2019-01-24T14:39:06.708Z,20.60
2019-01-24T14:41:47.277Z,25.77
2019-01-24T14:44:27.887Z,28.17
2019-01-24T14:47:08.903Z,17.80
2019-01-24T14:49:50.016Z,25.50
2019-01-24T14:52:31.319Z,19.70
2019-01-24T14:55:11.990Z,26.10
2019-01-24T14:57:52.691Z,23.07
2019-01-24T15:00:33.300Z,20.73
2019-01-24T15:03:14.802Z,19.40
2019-01-24T15:05:56.191Z,23.37
2019-01-24T15:08:36.853Z,23.90
2019-01-24T15:11:18.447Z,21.77
2019-01-24T15:13:59.744Z,20.70
2019-01-24T15:16:41.149Z,19.70
2019-01-24T15:19:21.795Z,25.03
2019-01-24T15:22:02.531Z,20.70
2019-01-24T15:24:43.773Z,23.30
2019-01-24T15:27:25.242Z,25.07
2019-01-24T15:30:03.579Z,26.10
2019-01-24T16:53:04.299Z,21.73
2019-01-24T16:55:45.066Z,26.93
2019-01-24T16:58:25.709Z,16.67
2019-01-24T17:01:06.304Z,22.47
2019-01-24T18:59:46.690Z,33.63
2019-01-24T19:02:27.675Z,34.97
2019-01-24T19:05:08.311Z,31.00
2019-01-24T19:07:49.486Z,24.50
2019-01-24T19:10:30.585Z,25.43
2019-01-24T19:13:11.607Z,26.93
2019-01-24T19:15:52.808Z,40.37
2019-01-24T19:18:34.184Z,25.13
2019-01-24T19:21:14.936Z,34.07
2019-01-24T19:23:56.061Z,26.17
2019-01-24T19:26:37.433Z,31.23
2019-01-24T19:29:18.331Z,31.83
2019-01-24T19:31:58.128Z,31.90
2019-01-24T19:34:46.644Z,29.07
2019-01-24T19:37:27.321Z,31.50
2019-01-24T19:40:08.667Z,30.60
2019-01-24T19:42:50.108Z,32.77
2019-01-24T19:45:31.351Z,33.10
2019-01-24T19:48:12.613Z,38.17
2019-01-24T19:50:53.959Z,30.70
2019-01-24T19:53:35.250Z,26.80
2019-01-24T19:56:16.074Z,29.37
2019-01-24T19:58:57.157Z,27.30
2019-01-24T20:01:37.800Z,30.77
2019-01-24T20:04:18.551Z,31.20
2019-01-24T20:06:59.978Z,30.33
2019-01-24T20:09:41.461Z,28.80
2019-01-24T20:12:22.154Z,30.07
2019-01-24T20:15:03.596Z,26.90
2019-01-24T20:17:43.190Z,32.43
2019-01-24T20:20:23.978Z,32.53
2019-01-24T20:23:05.288Z,30.77
2019-01-24T20:25:46.835Z,30.63
2019-01-24T20:28:27.810Z,28.83
2019-01-24T20:31:09.419Z,31.63
2019-01-24T20:33:50.765Z,37.43
2019-01-24T20:36:31.835Z,29.83
2019-01-24T20:39:12.574Z,27.83
2019-01-24T20:41:53.204Z,26.17
2019-01-24T20:44:34.329Z,32.70
2019-01-24T20:47:15.381Z,30.77
2019-01-24T20:49:56.494Z,28.13
2019-01-24T20:52:37.974Z,34.67
2019-01-24T20:55:18.532Z,29.17
2019-01-24T20:57:59.792Z,37.33
2019-01-24T21:00:41.114Z,30.80
2019-01-24T21:03:21.182Z,31.67
2019-01-24T21:09:14.688Z,30.67
2019-01-24T21:11:52.661Z,27.93
2019-01-24T21:14:33.327Z,29.83
2019-01-24T21:17:14.500Z,27.80
2019-01-24T21:19:55.218Z,26.47
2019-01-24T21:22:36.197Z,30.13
2019-01-24T21:25:17.638Z,27.87
2019-01-24T21:27:58.637Z,30.33
2019-01-24T21:30:38.330Z,30.60
2019-01-24T21:36:27.365Z,34.00
2019-01-24T21:39:07.451Z,31.03
2019-01-24T21:41:45.901Z,34.67
2019-01-24T21:44:26.098Z,23.30
2019-01-24T21:47:04.676Z,31.40
2019-01-24T21:49:44.912Z,27.33
2019-01-24T21:52:25.070Z,26.00
2019-01-24T21:55:03.576Z,31.00
2019-01-24T22:45:17.428Z,29.60
2019-01-24T22:47:56.533Z,30.60
